Time;durP1;ratioP1;P1;durP2;ratioP2;P2;SDS_P1;SDS_P2;PMS_P1;PMS_P2;Temp;Humidity;BMP_temperature;BMP_pressure;BME280_temperature;BME280_humidity;BME280_pressure;Samples;Min_cycle;Max_cycle;Signal;HPM_P1;HPM_P2
2020/12/15 00:01:45;;;;;;;1.73;1.50;;;;;;;;;;5026555;28;20177;-77
2020/12/15 00:04:10;;;;;;;6.60;2.43;;;;;;;;;;5041517;28;20674;-77
2020/12/15 00:06:36;;;;;;;2.73;1.60;;;;;;;;;;5037055;28;20421;-77
2020/12/15 00:09:02;;;;;;;2.65;2.00;;;;;;;;;;5041378;28;20452;-77
2020/12/15 00:11:28;;;;;;;3.40;1.80;;;;;;;;;;5023343;28;20221;-77
2020/12/15 00:13:54;;;;;;;2.15;1.85;;;;;;;;;;5043991;28;20215;-78
2020/12/15 00:16:20;;;;;;;4.50;1.80;;;;;;;;;;5041622;28;20209;-78
2020/12/15 00:18:47;;;;;;;4.70;1.77;;;;;;;;;;5039898;28;20166;-79
2020/12/15 00:21:19;;;;;;;4.32;2.05;;;;;;;;;;5041321;28;20441;-79
2020/12/15 00:23:45;;;;;;;2.40;1.50;;;;;;;;;;5041930;28;20186;-80
2020/12/15 00:26:11;;;;;;;1.70;1.60;;;;;;;;;;5040743;28;20188;-79
2020/12/15 00:28:38;;;;;;;3.13;1.50;;;;;;;;;;5018493;28;20210;-79
2020/12/15 00:31:04;;;;;;;2.75;1.80;;;;;;;;;;5028028;28;20190;-80
2020/12/15 00:33:30;;;;;;;5.47;1.60;;;;;;;;;;5033424;28;20170;-79
2020/12/15 00:35:56;;;;;;;1.95;1.60;;;;;;;;;;5036193;28;20459;-80
2020/12/15 00:38:22;;;;;;;5.10;1.60;;;;;;;;;;5032680;28;20209;-79
2020/12/15 00:40:48;;;;;;;3.17;1.75;;;;;;;;;;5032719;28;20246;-79
2020/12/15 00:43:14;;;;;;;1.90;1.63;;;;;;;;;;5028332;28;20185;-78
2020/12/15 00:45:40;;;;;;;1.37;1.27;;;;;;;;;;5012738;28;20444;-78
2020/12/15 00:48:06;;;;;;;2.03;1.80;;;;;;;;;;5031808;28;20468;-79
2020/12/15 00:50:32;;;;;;;1.92;1.60;;;;;;;;;;5015012;28;20437;-79
2020/12/15 00:52:58;;;;;;;4.60;1.77;;;;;;;;;;5028896;28;20194;-79
2020/12/15 00:55:24;;;;;;;2.93;2.40;;;;;;;;;;5027280;28;20425;-79
2020/12/15 00:57:50;;;;;;;4.20;2.03;;;;;;;;;;5026865;28;20432;-79
2020/12/15 01:00:16;;;;;;;2.47;1.90;;;;;;;;;;5025918;28;20435;-79
2020/12/15 01:02:42;;;;;;;2.70;1.80;;;;;;;;;;5035955;28;20506;-80
2020/12/15 01:05:08;;;;;;;6.47;2.30;;;;;;;;;;5015031;28;20468;-79
2020/12/15 01:07:34;;;;;;;3.50;2.17;;;;;;;;;;5040200;28;20457;-78
2020/12/15 01:10:00;;;;;;;2.40;2.03;;;;;;;;;;5026795;28;20517;-79
2020/12/15 01:12:26;;;;;;;4.35;1.52;;;;;;;;;;5014259;28;20487;-79
2020/12/15 01:14:52;;;;;;;5.00;2.25;;;;;;;;;;5031907;28;20190;-79
2020/12/15 01:17:18;;;;;;;7.40;1.60;;;;;;;;;;5014418;28;20190;-79
2020/12/15 01:19:44;;;;;;;3.53;1.88;;;;;;;;;;5030816;28;20444;-78
2020/12/15 01:22:11;;;;;;;2.80;1.80;;;;;;;;;;5041758;28;20185;-79
2020/12/15 01:24:37;;;;;;;5.22;1.52;;;;;;;;;;5040965;28;20182;-80
2020/12/15 01:27:03;;;;;;;4.10;1.50;;;;;;;;;;5032909;28;20228;-80
2020/12/15 01:29:29;;;;;;;5.72;2.40;;;;;;;;;;5020417;28;20464;-80
2020/12/15 01:31:55;;;;;;;3.13;2.30;;;;;;;;;;5032301;28;20166;-80
2020/12/15 01:34:20;;;;;;;7.43;2.33;;;;;;;;;;5010177;28;20227;-81
2020/12/15 01:36:47;;;;;;;2.80;1.50;;;;;;;;;;5028857;28;20425;-79
2020/12/15 01:39:13;;;;;;;2.28;2.00;;;;;;;;;;5031622;28;20437;-81
2020/12/15 01:41:39;;;;;;;3.47;1.85;;;;;;;;;;5033504;28;20255;-80
2020/12/15 01:44:05;;;;;;;2.25;2.00;;;;;;;;;;5038790;28;20190;-80
2020/12/15 01:46:32;;;;;;;3.28;1.70;;;;;;;;;;5043279;28;20185;-81
2020/12/15 01:48:58;;;;;;;2.75;2.55;;;;;;;;;;5025711;28;20270;-80
2020/12/15 01:51:28;;;;;;;4.55;2.00;;;;;;;;;;5014006;28;20265;-81
2020/12/15 01:54:03;;;;;;;6.45;1.60;;;;;;;;;;5014166;28;20179;-80
2020/12/15 01:56:30;;;;;;;2.75;1.70;;;;;;;;;;5031625;28;20228;-80
2020/12/15 01:58:57;;;;;;;3.30;2.28;;;;;;;;;;5009839;28;20189;-80
2020/12/15 02:01:23;;;;;;;2.13;1.95;;;;;;;;;;5030804;28;20610;-80
2020/12/15 02:03:50;;;;;;;3.67;1.83;;;;;;;;;;5028198;28;20543;-81
2020/12/15 02:06:16;;;;;;;3.13;2.67;;;;;;;;;;5030464;28;20178;-81
2020/12/15 02:08:43;;;;;;;2.60;1.90;;;;;;;;;;5036854;28;20212;-80
2020/12/15 02:11:09;;;;;;;7.43;2.17;;;;;;;;;;5037092;28;20186;-81
2020/12/15 02:13:36;;;;;;;4.70;2.03;;;;;;;;;;5040434;28;20217;-81
2020/12/15 02:16:03;;;;;;;2.03;1.75;;;;;;;;;;5026879;28;20175;-80
2020/12/15 02:18:29;;;;;;;3.35;1.98;;;;;;;;;;5031642;28;20174;-80
2020/12/15 02:20:55;;;;;;;3.13;1.83;;;;;;;;;;5038443;28;20643;-81
2020/12/15 02:23:21;;;;;;;8.45;1.90;;;;;;;;;;5039108;28;20479;-81
2020/12/15 02:25:47;;;;;;;1.80;1.70;;;;;;;;;;5010417;28;20183;-81
2020/12/15 02:28:13;;;;;;;2.80;1.90;;;;;;;;;;5024943;28;20213;-80
2020/12/15 02:30:40;;;;;;;1.30;1.20;;;;;;;;;;5029441;28;20414;-80
2020/12/15 02:33:06;;;;;;;2.40;1.80;;;;;;;;;;5013696;28;20562;-80
2020/12/15 02:35:32;;;;;;;4.03;1.27;;;;;;;;;;5030159;28;20182;-80
2020/12/15 02:37:58;;;;;;;1.53;1.43;;;;;;;;;;5030860;28;20201;-80
2020/12/15 02:40:24;;;;;;;2.20;1.45;;;;;;;;;;5021613;28;20441;-80
2020/12/15 02:42:50;;;;;;;4.53;1.50;;;;;;;;;;5026912;28;20178;-79
2020/12/15 02:45:16;;;;;;;4.30;1.45;;;;;;;;;;5025407;28;20412;-80
2020/12/15 02:47:42;;;;;;;1.40;1.30;;;;;;;;;;5033818;28;20298;-80
2020/12/15 02:50:09;;;;;;;1.27;1.17;;;;;;;;;;5012345;28;21005;-80
2020/12/15 02:52:35;;;;;;;2.25;1.48;;;;;;;;;;5027603;28;20538;-80
2020/12/15 02:55:00;;;;;;;1.50;1.20;;;;;;;;;;5025820;28;20179;-80
2020/12/15 02:57:26;;;;;;;3.33;1.53;;;;;;;;;;5030079;28;20421;-80
2020/12/15 02:59:52;;;;;;;7.93;1.42;;;;;;;;;;5013837;28;20441;-80
2020/12/15 03:02:19;;;;;;;1.97;1.70;;;;;;;;;;5021084;28;20694;-80
2020/12/15 03:04:46;;;;;;;1.98;1.08;;;;;;;;;;5014218;28;20441;-80
2020/12/15 03:07:12;;;;;;;1.67;1.20;;;;;;;;;;5024449;28;20299;-80
2020/12/15 03:09:38;;;;;;;1.48;1.38;;;;;;;;;;5028873;28;20182;-80
2020/12/15 03:12:04;;;;;;;4.00;1.30;;;;;;;;;;5032405;28;20222;-80
2020/12/15 03:14:30;;;;;;;2.20;1.20;;;;;;;;;;5017027;28;20190;-80
2020/12/15 03:16:56;;;;;;;1.65;1.13;;;;;;;;;;5030421;28;20233;-80
2020/12/15 03:19:22;;;;;;;1.92;1.30;;;;;;;;;;5030188;28;20197;-80
2020/12/15 03:21:48;;;;;;;1.83;1.15;;;;;;;;;;5035647;28;20261;-80
2020/12/15 03:24:14;;;;;;;2.10;1.30;;;;;;;;;;5032734;28;20194;-80
2020/12/15 03:26:40;;;;;;;2.20;1.30;;;;;;;;;;5018676;28;20440;-81
2020/12/15 03:29:06;;;;;;;1.93;1.50;;;;;;;;;;5044127;28;20440;-81
2020/12/15 03:31:32;;;;;;;3.60;1.47;;;;;;;;;;5031475;28;20424;-81
2020/12/15 03:33:58;;;;;;;1.30;1.20;;;;;;;;;;5028354;28;20425;-81
2020/12/15 03:36:24;;;;;;;1.25;1.05;;;;;;;;;;5018458;28;20184;-81
2020/12/15 03:38:50;;;;;;;1.83;1.30;;;;;;;;;;5036689;28;20293;-81
2020/12/15 03:41:16;;;;;;;1.85;1.33;;;;;;;;;;5034348;28;20437;-81
2020/12/15 03:43:42;;;;;;;2.70;1.57;;;;;;;;;;5017778;28;20199;-81
2020/12/15 03:46:08;;;;;;;3.40;1.00;;;;;;;;;;5020767;28;20746;-80
2020/12/15 03:48:34;;;;;;;2.20;1.10;;;;;;;;;;5016522;28;20500;-81
2020/12/15 03:51:00;;;;;;;1.43;1.10;;;;;;;;;;5027648;28;20436;-80
2020/12/15 03:53:26;;;;;;;2.13;0.90;;;;;;;;;;5040726;28;20437;-80
2020/12/15 03:55:52;;;;;;;1.80;1.00;;;;;;;;;;5033456;28;20440;-80
2020/12/15 03:58:18;;;;;;;2.88;1.20;;;;;;;;;;5028977;28;20474;-80
2020/12/15 04:00:44;;;;;;;4.90;1.60;;;;;;;;;;5013336;28;20217;-80
2020/12/15 04:03:10;;;;;;;4.72;1.10;;;;;;;;;;5016094;28;20198;-80
2020/12/15 04:05:36;;;;;;;4.55;1.20;;;;;;;;;;5032062;28;20188;-80
2020/12/15 04:08:03;;;;;;;1.25;1.10;;;;;;;;;;5030595;28;20210;-80
2020/12/15 04:10:29;;;;;;;1.20;1.10;;;;;;;;;;5030602;28;20178;-80
2020/12/15 04:12:55;;;;;;;1.83;1.13;;;;;;;;;;5028514;28;20296;-80
2020/12/15 04:15:21;;;;;;;3.60;1.10;;;;;;;;;;5015300;28;20537;-80
2020/12/15 04:17:47;;;;;;;0.90;0.90;;;;;;;;;;5015747;28;20197;-80
2020/12/15 04:20:13;;;;;;;4.43;1.20;;;;;;;;;;5033832;28;20441;-80
2020/12/15 04:22:39;;;;;;;2.88;1.08;;;;;;;;;;5030873;28;20239;-80
2020/12/15 04:25:06;;;;;;;1.85;1.20;;;;;;;;;;5026903;28;20595;-80
2020/12/15 04:27:32;;;;;;;1.63;1.20;;;;;;;;;;5031918;28;20203;-79
2020/12/15 04:29:58;;;;;;;3.00;1.40;;;;;;;;;;5032953;28;20190;-79
2020/12/15 04:32:24;;;;;;;3.67;1.15;;;;;;;;;;5029024;28;20194;-80
2020/12/15 04:34:50;;;;;;;1.27;0.80;;;;;;;;;;5031894;28;20572;-80
2020/12/15 04:37:16;;;;;;;1.30;1.00;;;;;;;;;;5011588;28;20204;-80
2020/12/15 04:39:42;;;;;;;1.25;1.08;;;;;;;;;;5029986;28;20186;-80
2020/12/15 04:42:08;;;;;;;1.10;1.00;;;;;;;;;;5014855;28;20195;-80
2020/12/15 04:44:35;;;;;;;1.75;1.02;;;;;;;;;;5016263;28;20179;-80
2020/12/15 04:47:17;;;;;;;1.38;1.10;;;;;;;;;;5029886;28;20214;-80
2020/12/15 04:49:59;;;;;;;2.00;1.27;;;;;;;;;;5030161;28;20177;-80
2020/12/15 04:52:26;;;;;;;3.75;1.50;;;;;;;;;;5027718;28;20264;-80
2020/12/15 04:54:52;;;;;;;1.48;1.38;;;;;;;;;;5027380;28;20667;-80
2020/12/15 04:57:21;;;;;;;2.35;1.33;;;;;;;;;;5015018;28;20246;-80
2020/12/15 04:59:48;;;;;;;4.75;1.33;;;;;;;;;;5014726;28;20433;-80
2020/12/15 05:02:14;;;;;;;1.45;0.95;;;;;;;;;;5017458;28;20246;-80
2020/12/15 05:04:40;;;;;;;3.22;1.55;;;;;;;;;;5041914;28;20179;-80
2020/12/15 05:07:07;;;;;;;1.58;1.30;;;;;;;;;;5025691;28;20284;-80
2020/12/15 05:09:33;;;;;;;1.63;1.20;;;;;;;;;;5013232;28;20186;-80
2020/12/15 05:12:00;;;;;;;4.40;1.23;;;;;;;;;;5013932;28;20186;-81
2020/12/15 05:14:26;;;;;;;3.38;1.10;;;;;;;;;;5031772;28;20239;-81
2020/12/15 05:16:52;;;;;;;3.42;1.30;;;;;;;;;;5032181;28;20201;-81
2020/12/15 05:19:18;;;;;;;2.10;1.35;;;;;;;;;;5027851;28;20186;-81
2020/12/15 05:21:54;;;;;;;1.55;1.45;;;;;;;;;;5029366;28;20182;-81
2020/12/15 05:24:26;;;;;;;2.00;1.30;;;;;;;;;;5032622;28;20200;-81
2020/12/15 05:26:53;;;;;;;1.50;1.23;;;;;;;;;;5037483;28;20209;-81
2020/12/15 05:29:20;;;;;;;2.50;1.52;;;;;;;;;;5040343;28;20186;-81
2020/12/15 05:31:46;;;;;;;2.50;1.70;;;;;;;;;;5041372;28;20189;-82
2020/12/15 05:34:13;;;;;;;1.95;1.60;;;;;;;;;;5035989;28;20649;-82
2020/12/15 05:37:08;;;;;;;2.10;1.88;;;;;;;;;;5029644;28;20177;-82
2020/12/15 05:39:34;;;;;;;4.30;2.15;;;;;;;;;;5022979;28;20217;-81
2020/12/15 05:42:02;;;;;;;2.73;1.77;;;;;;;;;;5020735;28;20542;-81
2020/12/15 05:44:28;;;;;;;2.70;2.08;;;;;;;;;;5038506;28;20441;-81
2020/12/15 05:47:01;;;;;;;2.78;1.80;;;;;;;;;;5041628;28;20210;-81
2020/12/15 05:49:28;;;;;;;8.45;1.88;;;;;;;;;;5010151;28;20228;-82
2020/12/15 05:51:54;;;;;;;3.45;1.80;;;;;;;;;;5041669;28;20174;-81
2020/12/15 05:54:20;;;;;;;1.73;1.60;;;;;;;;;;5043597;28;20170;-82
2020/12/15 05:56:46;;;;;;;2.90;1.60;;;;;;;;;;5035960;28;20236;-82
2020/12/15 05:59:19;;;;;;;2.88;2.20;;;;;;;;;;5029677;28;20206;-82
2020/12/15 06:01:52;;;;;;;5.18;1.70;;;;;;;;;;5041906;28;20719;-82
2020/12/15 06:04:19;;;;;;;3.58;2.05;;;;;;;;;;5025382;28;20181;-82
2020/12/15 06:06:46;;;;;;;1.63;1.52;;;;;;;;;;5028410;28;20175;-81
2020/12/15 06:09:13;;;;;;;5.25;2.03;;;;;;;;;;5031681;28;20272;-82
2020/12/15 06:11:40;;;;;;;3.33;2.33;;;;;;;;;;5031320;28;20189;-82
2020/12/15 06:14:07;;;;;;;2.50;2.30;;;;;;;;;;5009048;28;20218;-81
2020/12/15 06:16:33;;;;;;;2.28;1.92;;;;;;;;;;5021294;28;20183;-81
2020/12/15 06:18:59;;;;;;;2.28;2.03;;;;;;;;;;5022056;28;20277;-81
2020/12/15 06:21:25;;;;;;;6.60;2.40;;;;;;;;;;5011831;28;20175;-81
2020/12/15 06:23:58;;;;;;;2.53;2.33;;;;;;;;;;5010687;28;20438;-81
2020/12/15 06:26:26;;;;;;;4.30;1.95;;;;;;;;;;5026136;28;20218;-80
2020/12/15 06:28:59;;;;;;;4.47;2.20;;;;;;;;;;5023307;28;20202;-81
2020/12/15 06:31:25;;;;;;;3.00;2.08;;;;;;;;;;5008104;28;20185;-81
2020/12/15 06:33:55;;;;;;;2.90;1.88;;;;;;;;;;5018722;28;20186;-81
2020/12/15 06:36:28;;;;;;;2.63;2.40;;;;;;;;;;5011405;28;20187;-81
2020/12/15 06:38:54;;;;;;;5.35;2.38;;;;;;;;;;5010314;28;20187;-81
2020/12/15 06:41:21;;;;;;;2.80;1.90;;;;;;;;;;5013124;28;20214;-80
2020/12/15 06:43:47;;;;;;;2.92;1.83;;;;;;;;;;5010460;28;20250;-81
2020/12/15 06:46:13;;;;;;;6.50;2.25;;;;;;;;;;5007753;28;20198;-81
2020/12/15 06:48:39;;;;;;;3.38;2.08;;;;;;;;;;5012098;28;20210;-81
2020/12/15 06:51:05;;;;;;;2.20;1.70;;;;;;;;;;5015602;28;20202;-81
2020/12/15 06:53:31;;;;;;;2.85;2.30;;;;;;;;;;5020042;28;20179;-81
2020/12/15 06:55:58;;;;;;;3.20;2.50;;;;;;;;;;5027685;28;20179;-80
2020/12/15 06:58:24;;;;;;;4.80;2.53;;;;;;;;;;5025502;28;20198;-81
2020/12/15 07:00:51;;;;;;;2.40;2.20;;;;;;;;;;5012168;28;20213;-80
2020/12/15 07:03:20;;;;;;;3.40;2.33;;;;;;;;;;5022458;28;20174;-80
2020/12/15 07:05:46;;;;;;;4.38;2.50;;;;;;;;;;5019340;28;20203;-81
2020/12/15 07:08:13;;;;;;;4.17;2.57;;;;;;;;;;5012846;28;20211;-80
2020/12/15 07:10:40;;;;;;;4.10;2.53;;;;;;;;;;5028490;28;20537;-81
2020/12/15 07:13:06;;;;;;;4.35;2.60;;;;;;;;;;5019154;28;20222;-80
2020/12/15 07:15:34;;;;;;;3.05;1.90;;;;;;;;;;5016078;28;20526;-80
2020/12/15 07:18:01;;;;;;;6.47;2.45;;;;;;;;;;5033894;28;20554;-80
2020/12/15 07:20:27;;;;;;;3.47;1.73;;;;;;;;;;5016905;28;20190;-80
2020/12/15 07:22:53;;;;;;;2.60;2.40;;;;;;;;;;5044316;28;20181;-80
2020/12/15 07:25:20;;;;;;;3.40;2.60;;;;;;;;;;5030628;28;20194;-80
2020/12/15 07:27:46;;;;;;;4.57;3.17;;;;;;;;;;5030468;28;20232;-81
2020/12/15 07:30:22;;;;;;;3.28;2.97;;;;;;;;;;5021747;28;20190;-80
2020/12/15 07:32:49;;;;;;;4.05;2.45;;;;;;;;;;5020136;28;20186;-80
2020/12/15 07:35:17;;;;;;;4.97;3.25;;;;;;;;;;5017174;28;20190;-81
2020/12/15 07:37:44;;;;;;;4.50;3.30;;;;;;;;;;5040360;28;20245;-80
2020/12/15 07:40:12;;;;;;;3.80;3.08;;;;;;;;;;5029161;28;20533;-80
2020/12/15 07:42:39;;;;;;;3.75;2.78;;;;;;;;;;5019861;28;20214;-80
2020/12/15 07:45:08;;;;;;;6.60;3.03;;;;;;;;;;5038927;28;20193;-80
2020/12/15 07:47:38;;;;;;;5.95;2.45;;;;;;;;;;5040946;28;20209;-79
2020/12/15 07:50:04;;;;;;;4.80;2.55;;;;;;;;;;5036495;28;20189;-80
2020/12/15 07:52:31;;;;;;;4.97;1.77;;;;;;;;;;5019704;28;20254;-80
2020/12/15 07:55:00;;;;;;;4.43;2.80;;;;;;;;;;5042789;28;20429;-80
2020/12/15 07:57:28;;;;;;;4.60;3.22;;;;;;;;;;5037229;28;20236;-80
2020/12/15 07:59:55;;;;;;;2.40;2.15;;;;;;;;;;5028952;28;20186;-80
2020/12/15 08:02:21;;;;;;;3.30;3.00;;;;;;;;;;5042868;28;20269;-80
2020/12/15 08:04:47;;;;;;;2.40;2.03;;;;;;;;;;5040870;28;20182;-80
2020/12/15 08:07:13;;;;;;;3.20;2.60;;;;;;;;;;5040972;28;21065;-80
2020/12/15 08:09:39;;;;;;;3.85;2.58;;;;;;;;;;5014492;28;20513;-80
2020/12/15 08:12:06;;;;;;;5.20;2.37;;;;;;;;;;5039014;28;20197;-80
2020/12/15 08:14:32;;;;;;;4.55;2.53;;;;;;;;;;5040560;28;20870;-80
2020/12/15 08:17:11;;;;;;;2.55;2.35;;;;;;;;;;5042326;28;20236;-80
2020/12/15 08:19:37;;;;;;;2.08;1.98;;;;;;;;;;5042284;28;20189;-81
2020/12/15 08:22:03;;;;;;;4.28;2.10;;;;;;;;;;5041232;28;20212;-80
2020/12/15 08:24:29;;;;;;;2.63;1.95;;;;;;;;;;5034921;28;20343;-80
2020/12/15 08:26:55;;;;;;;2.10;1.88;;;;;;;;;;5024674;28;20206;-80
2020/12/15 08:29:27;;;;;;;2.40;1.73;;;;;;;;;;5022390;28;20187;-80
2020/12/15 08:31:53;;;;;;;2.28;1.52;;;;;;;;;;5017484;28;20558;-81
2020/12/15 08:34:20;;;;;;;6.18;2.55;;;;;;;;;;5028765;28;20205;-80
2020/12/15 08:36:48;;;;;;;2.10;1.67;;;;;;;;;;5030767;28;20179;-80
2020/12/15 08:39:14;;;;;;;7.25;2.80;;;;;;;;;;5024947;28;20189;-80
2020/12/15 08:41:54;;;;;;;4.05;1.77;;;;;;;;;;5025595;28;20248;-80
2020/12/15 08:44:20;;;;;;;4.70;2.30;;;;;;;;;;5041977;28;20208;-80
2020/12/15 08:46:47;;;;;;;2.58;1.75;;;;;;;;;;5042523;28;20178;-80
2020/12/15 08:49:14;;;;;;;2.95;1.70;;;;;;;;;;5042006;28;20232;-80
2020/12/15 08:51:40;;;;;;;2.55;1.55;;;;;;;;;;5027044;28;20170;-80
2020/12/15 08:54:07;;;;;;;8.00;2.25;;;;;;;;;;5034105;28;20218;-80
2020/12/15 08:56:34;;;;;;;2.70;1.90;;;;;;;;;;5038589;28;20182;-79
2020/12/15 08:59:09;;;;;;;4.03;1.80;;;;;;;;;;5041799;28;20253;-80
2020/12/15 09:01:35;;;;;;;2.95;1.67;;;;;;;;;;5012481;28;20232;-81
2020/12/15 09:04:01;;;;;;;3.25;1.77;;;;;;;;;;5041431;28;20229;-79
2020/12/15 09:06:30;;;;;;;1.90;1.80;;;;;;;;;;5024612;28;20333;-80
2020/12/15 09:08:56;;;;;;;3.75;1.98;;;;;;;;;;5032883;28;20461;-79
2020/12/15 09:11:22;;;;;;;3.20;1.60;;;;;;;;;;5038526;28;20253;-80
2020/12/15 09:13:55;;;;;;;4.90;2.47;;;;;;;;;;5031049;28;20217;-80
2020/12/15 09:16:25;;;;;;;2.60;1.80;;;;;;;;;;5028303;28;20447;-80
2020/12/15 09:18:51;;;;;;;7.88;2.20;;;;;;;;;;5022676;28;20188;-79
2020/12/15 09:21:18;;;;;;;2.60;2.00;;;;;;;;;;5026073;28;20185;-80
2020/12/15 09:23:47;;;;;;;2.38;2.10;;;;;;;;;;5035750;28;20197;-81
2020/12/15 09:26:13;;;;;;;3.88;2.45;;;;;;;;;;5013831;28;20217;-81
2020/12/15 09:28:39;;;;;;;2.20;2.00;;;;;;;;;;5028068;28;20206;-80
2020/12/15 09:31:05;;;;;;;3.97;2.40;;;;;;;;;;5026792;28;20186;-81
2020/12/15 09:33:31;;;;;;;5.57;1.95;;;;;;;;;;5028517;28;20497;-80
2020/12/15 09:35:57;;;;;;;3.15;2.15;;;;;;;;;;5032561;28;20193;-80
2020/12/15 09:38:23;;;;;;;2.90;2.10;;;;;;;;;;5014112;28;20214;-80
2020/12/15 09:40:49;;;;;;;5.30;2.23;;;;;;;;;;5031378;28;20424;-80
2020/12/15 09:43:16;;;;;;;6.50;2.60;;;;;;;;;;5026214;28;20436;-80
2020/12/15 09:45:42;;;;;;;3.45;2.28;;;;;;;;;;5012070;28;20186;-80
2020/12/15 09:48:07;;;;;;;3.10;2.37;;;;;;;;;;5031229;28;20274;-80
2020/12/15 09:50:34;;;;;;;2.60;2.37;;;;;;;;;;5032097;28;20965;-80
2020/12/15 09:53:00;;;;;;;2.20;2.00;;;;;;;;;;5031912;28;20535;-80
2020/12/15 09:55:26;;;;;;;4.80;2.50;;;;;;;;;;5009667;28;20193;-80
2020/12/15 09:57:52;;;;;;;4.43;2.03;;;;;;;;;;5025163;28;20181;-80
2020/12/15 10:00:18;;;;;;;2.97;2.50;;;;;;;;;;5021846;28;20506;-79
2020/12/15 10:02:44;;;;;;;2.50;2.28;;;;;;;;;;5031608;28;20178;-80
2020/12/15 10:05:10;;;;;;;2.80;2.23;;;;;;;;;;5013105;28;20193;-80
2020/12/15 10:07:37;;;;;;;2.20;2.00;;;;;;;;;;5027691;28;20457;-81
2020/12/15 10:10:04;;;;;;;2.60;2.40;;;;;;;;;;5025827;28;20174;-80
2020/12/15 10:12:30;;;;;;;2.88;1.95;;;;;;;;;;5012015;28;20225;-81
2020/12/15 10:14:56;;;;;;;4.43;2.22;;;;;;;;;;5031934;28;20644;-79
2020/12/15 10:17:22;;;;;;;4.03;2.30;;;;;;;;;;5013760;28;20183;-80
2020/12/15 10:19:48;;;;;;;4.35;2.35;;;;;;;;;;5025728;28;20274;-80
2020/12/15 10:22:14;;;;;;;3.20;2.63;;;;;;;;;;5027787;28;20212;-80
2020/12/15 10:24:40;;;;;;;3.58;3.13;;;;;;;;;;5015848;28;20229;-80
2020/12/15 10:27:06;;;;;;;6.50;2.78;;;;;;;;;;5034940;28;20265;-80
2020/12/15 10:29:33;;;;;;;2.83;2.47;;;;;;;;;;5017362;28;20217;-80
2020/12/15 10:31:59;;;;;;;3.17;2.25;;;;;;;;;;5035347;28;20178;-81
2020/12/15 10:34:25;;;;;;;3.85;2.35;;;;;;;;;;5013268;28;20183;-81
2020/12/15 10:36:51;;;;;;;5.45;2.40;;;;;;;;;;5030725;28;20178;-80
2020/12/15 10:39:18;;;;;;;2.15;1.90;;;;;;;;;;5025680;28;20205;-81
2020/12/15 10:41:44;;;;;;;10.30;2.78;;;;;;;;;;5024709;28;20198;-81
2020/12/15 10:44:14;;;;;;;6.40;2.25;;;;;;;;;;5035019;28;20212;-80
2020/12/15 10:46:47;;;;;;;1.90;1.80;;;;;;;;;;5015964;28;20173;-81
2020/12/15 10:49:15;;;;;;;2.40;1.48;;;;;;;;;;5029138;28;20477;-80
2020/12/15 10:51:41;;;;;;;4.18;1.73;;;;;;;;;;5032230;28;20174;-80
2020/12/15 10:54:08;;;;;;;3.05;2.28;;;;;;;;;;5024851;28;20220;-80
2020/12/15 10:56:34;;;;;;;5.20;1.85;;;;;;;;;;5039013;28;20216;-80
2020/12/15 10:59:00;;;;;;;4.50;1.50;;;;;;;;;;5042687;28;20527;-81
2020/12/15 11:01:28;;;;;;;5.03;1.55;;;;;;;;;;5030426;28;20209;-81
2020/12/15 11:03:54;;;;;;;1.38;1.27;;;;;;;;;;5042092;28;20174;-81
2020/12/15 11:06:25;;;;;;;1.80;1.42;;;;;;;;;;5025881;28;20182;-80
2020/12/15 11:08:51;;;;;;;4.25;1.52;;;;;;;;;;5037816;28;20194;-80
2020/12/15 11:11:17;;;;;;;2.67;1.90;;;;;;;;;;5024384;28;20206;-81
2020/12/15 11:13:43;;;;;;;2.60;2.40;;;;;;;;;;5014835;28;20722;-80
2020/12/15 11:16:09;;;;;;;2.90;1.75;;;;;;;;;;5037908;28;20512;-79
2020/12/15 11:18:35;;;;;;;4.90;1.55;;;;;;;;;;5015491;28;20206;-81
2020/12/15 11:21:01;;;;;;;4.10;1.90;;;;;;;;;;5016237;28;20221;-80
2020/12/15 11:23:27;;;;;;;3.58;1.80;;;;;;;;;;5034515;28;20451;-81
2020/12/15 11:25:53;;;;;;;2.65;1.60;;;;;;;;;;5016441;28;20201;-81
2020/12/15 11:28:19;;;;;;;7.35;2.08;;;;;;;;;;5027298;28;20220;-80
2020/12/15 11:30:46;;;;;;;2.70;1.30;;;;;;;;;;5013433;28;20179;-82
2020/12/15 11:33:12;;;;;;;2.63;1.50;;;;;;;;;;5026444;28;20182;-80
2020/12/15 11:35:38;;;;;;;3.50;1.50;;;;;;;;;;5038393;28;20270;-82
2020/12/15 11:38:05;;;;;;;4.93;1.25;;;;;;;;;;5014718;28;20190;-80
2020/12/15 11:40:31;;;;;;;3.53;1.05;;;;;;;;;;5028678;28;20197;-80
2020/12/15 11:42:57;;;;;;;7.85;1.27;;;;;;;;;;5031264;28;20178;-79
2020/12/15 11:45:24;;;;;;;2.85;1.88;;;;;;;;;;5016539;28;20179;-81
2020/12/15 11:47:51;;;;;;;3.10;1.40;;;;;;;;;;5015992;28;20209;-80
2020/12/15 11:50:17;;;;;;;1.90;1.08;;;;;;;;;;5031990;28;20190;-80
2020/12/15 11:52:43;;;;;;;1.75;1.08;;;;;;;;;;5036361;28;20186;-80
2020/12/15 11:55:09;;;;;;;7.00;1.43;;;;;;;;;;5032846;28;20185;-80
2020/12/15 11:57:35;;;;;;;1.52;1.08;;;;;;;;;;5027066;28;20413;-80
2020/12/15 12:00:04;;;;;;;5.50;1.27;;;;;;;;;;5026890;28;20189;-80
2020/12/15 12:02:31;;;;;;;3.25;1.67;;;;;;;;;;5026715;28;20182;-82
2020/12/15 12:04:57;;;;;;;1.77;1.20;;;;;;;;;;5043656;28;20185;-83
2020/12/15 12:07:23;;;;;;;3.97;1.55;;;;;;;;;;5025497;28;20575;-81
2020/12/15 12:09:49;;;;;;;2.90;1.13;;;;;;;;;;5041220;28;20212;-82
2020/12/15 12:12:15;;;;;;;2.83;1.45;;;;;;;;;;5015447;28;20257;-81
2020/12/15 12:14:41;;;;;;;3.50;1.63;;;;;;;;;;5039654;28;20188;-82
2020/12/15 12:17:07;;;;;;;1.20;1.10;;;;;;;;;;5025227;28;20436;-81
2020/12/15 12:19:33;;;;;;;3.73;1.10;;;;;;;;;;5030109;28;20196;-82
2020/12/15 12:21:59;;;;;;;2.60;0.90;;;;;;;;;;5026541;28;20452;-81
2020/12/15 12:24:24;;;;;;;2.27;1.27;;;;;;;;;;5015655;28;20445;-81
2020/12/15 12:26:51;;;;;;;2.20;1.10;;;;;;;;;;5014959;28;20445;-81
2020/12/15 12:29:17;;;;;;;3.60;1.33;;;;;;;;;;5031700;28;20437;-82
2020/12/15 12:31:50;;;;;;;5.43;1.65;;;;;;;;;;5043725;28;20209;-81
2020/12/15 12:34:16;;;;;;;3.63;1.38;;;;;;;;;;5027766;28;20593;-81
2020/12/15 12:36:42;;;;;;;2.13;1.27;;;;;;;;;;5030420;28;20175;-82
2020/12/15 12:39:08;;;;;;;2.70;1.30;;;;;;;;;;5010685;28;20285;-81
2020/12/15 12:41:34;;;;;;;3.72;1.17;;;;;;;;;;5014367;28;20208;-81
2020/12/15 12:44:00;;;;;;;2.08;1.52;;;;;;;;;;5039069;28;20196;-81
2020/12/15 12:46:26;;;;;;;4.20;1.27;;;;;;;;;;5010965;28;20651;-81
2020/12/15 12:48:52;;;;;;;1.80;1.27;;;;;;;;;;5039030;28;20209;-81
2020/12/15 12:51:18;;;;;;;3.70;1.37;;;;;;;;;;5022451;28;20431;-81
2020/12/15 12:53:45;;;;;;;5.67;2.07;;;;;;;;;;5035858;28;20845;-81
2020/12/15 12:56:11;;;;;;;3.35;2.10;;;;;;;;;;5013430;28;20488;-81
2020/12/15 12:58:38;;;;;;;3.55;1.75;;;;;;;;;;5028650;28;20193;-81
2020/12/15 13:01:04;;;;;;;3.28;1.63;;;;;;;;;;5031860;28;20186;-83
2020/12/15 13:03:31;;;;;;;4.70;2.00;;;;;;;;;;5031700;28;20629;-83
2020/12/15 13:05:57;;;;;;;1.85;1.42;;;;;;;;;;5032468;28;20186;-81
2020/12/15 13:08:23;;;;;;;3.85;1.90;;;;;;;;;;5031550;28;20206;-81
2020/12/15 13:10:49;;;;;;;2.88;1.48;;;;;;;;;;5011345;28;20203;-82
2020/12/15 13:13:15;;;;;;;2.58;1.33;;;;;;;;;;5036475;28;20225;-81
2020/12/15 13:15:41;;;;;;;2.97;1.13;;;;;;;;;;5026335;28;20189;-80
2020/12/15 13:18:10;;;;;;;6.40;2.10;;;;;;;;;;5023355;28;20476;-80
2020/12/15 13:20:36;;;;;;;3.63;1.95;;;;;;;;;;5034859;28;20589;-79
2020/12/15 13:23:03;;;;;;;4.25;1.73;;;;;;;;;;5018740;28;20186;-80
2020/12/15 13:25:29;;;;;;;3.72;1.58;;;;;;;;;;5043371;28;20193;-80
2020/12/15 13:27:55;;;;;;;3.72;1.30;;;;;;;;;;5026268;28;20318;-80
2020/12/15 13:30:21;;;;;;;3.03;1.30;;;;;;;;;;5020775;28;20178;-79
2020/12/15 13:32:47;;;;;;;3.55;1.38;;;;;;;;;;5035016;28;20603;-80
2020/12/15 13:35:13;;;;;;;4.60;1.42;;;;;;;;;;5040510;28;20186;-80
2020/12/15 13:37:39;;;;;;;8.60;1.55;;;;;;;;;;5023962;28;20220;-79
2020/12/15 13:40:06;;;;;;;3.90;1.38;;;;;;;;;;5042177;28;20173;-79
2020/12/15 13:42:32;;;;;;;4.10;1.80;;;;;;;;;;5012142;28;20178;-79
2020/12/15 13:44:58;;;;;;;2.58;1.40;;;;;;;;;;5014547;28;20194;-78
2020/12/15 13:47:25;;;;;;;5.50;1.33;;;;;;;;;;5014661;28;20202;-79
2020/12/15 13:49:51;;;;;;;1.33;1.17;;;;;;;;;;5030741;28;20249;-79
2020/12/15 13:52:22;;;;;;;2.50;1.35;;;;;;;;;;5018577;28;20177;-79
2020/12/15 13:54:48;;;;;;;2.10;1.30;;;;;;;;;;5042684;28;20162;-79
2020/12/15 13:57:14;;;;;;;2.35;1.58;;;;;;;;;;5030813;28;20261;-79
2020/12/15 13:59:41;;;;;;;2.35;1.58;;;;;;;;;;5014105;28;20193;-80
2020/12/15 14:02:07;;;;;;;4.65;1.40;;;;;;;;;;5038946;28;20258;-79
2020/12/15 14:04:33;;;;;;;3.53;1.35;;;;;;;;;;5040255;28;20182;-79
2020/12/15 14:06:59;;;;;;;5.38;1.33;;;;;;;;;;5038256;28;20177;-79
2020/12/15 14:09:25;;;;;;;4.45;1.65;;;;;;;;;;5024923;28;20174;-79
2020/12/15 14:11:51;;;;;;;2.70;1.45;;;;;;;;;;5035614;28;20193;-80
2020/12/15 14:14:17;;;;;;;4.90;1.43;;;;;;;;;;5037617;28;20210;-79
2020/12/15 14:16:44;;;;;;;3.00;1.20;;;;;;;;;;5014359;28;20444;-78
2020/12/15 14:19:10;;;;;;;9.77;1.30;;;;;;;;;;5025086;28;20436;-79
2020/12/15 14:21:40;;;;;;;5.63;1.50;;;;;;;;;;5012636;28;20182;-78
2020/12/15 14:24:06;;;;;;;4.63;0.98;;;;;;;;;;5008472;28;20190;-78
2020/12/15 14:26:32;;;;;;;5.23;1.00;;;;;;;;;;5013345;28;20217;-79
2020/12/15 14:28:58;;;;;;;2.97;1.00;;;;;;;;;;5031508;28;20468;-78
2020/12/15 14:31:29;;;;;;;4.13;1.80;;;;;;;;;;5021833;28;20476;-78
2020/12/15 14:33:55;;;;;;;2.08;1.13;;;;;;;;;;5025058;28;20433;-78
2020/12/15 14:36:21;;;;;;;5.47;1.45;;;;;;;;;;5021040;28;20182;-78
2020/12/15 14:38:47;;;;;;;3.07;0.90;;;;;;;;;;5033957;28;20679;-78
2020/12/15 14:41:13;;;;;;;1.98;1.10;;;;;;;;;;5041305;28;20459;-78